sensor_id;sensor_type;location;lat;lon;timestamp;temperature;humidity
38798;SHT11;24546;52.240;16.826;2022-08-19T00:01:37;25.70;94.50
38798;SHT11;24546;52.240;16.826;2022-08-19T00:06:40;25.60;95.10
38798;SHT11;24546;52.240;16.826;2022-08-19T00:11:43;25.50;94.70
38798;SHT11;24546;52.240;16.826;2022-08-19T00:16:46;25.50;94.90
38798;SHT11;24546;52.240;16.826;2022-08-19T00:21:47;25.50;95.00
38798;SHT11;24546;52.240;16.826;2022-08-19T00:26:48;25.50;95.00
38798;SHT11;24546;52.240;16.826;2022-08-19T00:31:51;25.60;95.10
38798;SHT11;24546;52.240;16.826;2022-08-19T00:36:57;25.50;95.00
38798;SHT11;24546;52.240;16.826;2022-08-19T00:41:58;25.50;95.20
38798;SHT11;24546;52.240;16.826;2022-08-19T00:46:59;25.60;95.10
38798;SHT11;24546;52.240;16.826;2022-08-19T00:52:06;25.60;95.30
38798;SHT11;24546;52.240;16.826;2022-08-19T00:57:11;25.70;95.30
38798;SHT11;24546;52.240;16.826;2022-08-19T01:02:16;25.70;95.20
38798;SHT11;24546;52.240;16.826;2022-08-19T01:07:17;25.60;95.30
38798;SHT11;24546;52.240;16.826;2022-08-19T01:12:19;25.60;95.40
38798;SHT11;24546;52.240;16.826;2022-08-19T01:17:20;25.50;95.60
38798;SHT11;24546;52.240;16.826;2022-08-19T01:27:25;25.50;95.70
38798;SHT11;24546;52.240;16.826;2022-08-19T01:32:26;25.50;95.60
38798;SHT11;24546;52.240;16.826;2022-08-19T01:37:27;25.30;96.20
38798;SHT11;24546;52.240;16.826;2022-08-19T01:42:28;25.20;96.30
38798;SHT11;24546;52.240;16.826;2022-08-19T01:47:30;25.20;96.40
38798;SHT11;24546;52.240;16.826;2022-08-19T01:52:31;25.20;96.30
38798;SHT11;24546;52.240;16.826;2022-08-19T01:57:32;25.20;96.40
38798;SHT11;24546;52.240;16.826;2022-08-19T02:02:33;25.30;96.30
38798;SHT11;24546;52.240;16.826;2022-08-19T02:07:35;25.30;96.80
38798;SHT11;24546;52.240;16.826;2022-08-19T02:12:36;25.20;96.20
38798;SHT11;24546;52.240;16.826;2022-08-19T02:17:38;25.10;96.70
38798;SHT11;24546;52.240;16.826;2022-08-19T02:22:39;25.10;97.20
38798;SHT11;24546;52.240;16.826;2022-08-19T02:27:42;25.10;96.90
38798;SHT11;24546;52.240;16.826;2022-08-19T02:32:43;25.10;96.90
38798;SHT11;24546;52.240;16.826;2022-08-19T02:37:45;25.00;97.00
38798;SHT11;24546;52.240;16.826;2022-08-19T02:43:07;25.00;97.00
38798;SHT11;24546;52.240;16.826;2022-08-19T02:48:08;25.00;96.90
38798;SHT11;24546;52.240;16.826;2022-08-19T02:53:10;25.10;97.00
38798;SHT11;24546;52.240;16.826;2022-08-19T02:58:14;25.00;97.10
38798;SHT11;24546;52.240;16.826;2022-08-19T03:03:16;25.00;97.20
38798;SHT11;24546;52.240;16.826;2022-08-19T03:08:17;25.00;97.10
38798;SHT11;24546;52.240;16.826;2022-08-19T03:13:18;25.10;97.10
38798;SHT11;24546;52.240;16.826;2022-08-19T03:18:19;24.90;97.30
38798;SHT11;24546;52.240;16.826;2022-08-19T03:23:20;24.80;97.40
38798;SHT11;24546;52.240;16.826;2022-08-19T03:28:22;24.80;97.40
38798;SHT11;24546;52.240;16.826;2022-08-19T03:33:27;24.80;97.70
38798;SHT11;24546;52.240;16.826;2022-08-19T03:38:28;24.70;97.50
38798;SHT11;24546;52.240;16.826;2022-08-19T03:43:29;24.70;97.60
38798;SHT11;24546;52.240;16.826;2022-08-19T03:48:31;24.70;97.70
38798;SHT11;24546;52.240;16.826;2022-08-19T03:53:34;24.60;98.10
38798;SHT11;24546;52.240;16.826;2022-08-19T03:58:35;24.60;98.20
38798;SHT11;24546;52.240;16.826;2022-08-19T04:03:39;24.30;98.60
38798;SHT11;24546;52.240;16.826;2022-08-19T04:08:41;24.30;98.50
38798;SHT11;24546;52.240;16.826;2022-08-19T04:13:43;24.30;98.80
38798;SHT11;24546;52.240;16.826;2022-08-19T04:18:44;24.30;99.00
38798;SHT11;24546;52.240;16.826;2022-08-19T04:23:46;24.30;99.00
38798;SHT11;24546;52.240;16.826;2022-08-19T04:28:48;24.40;98.90
38798;SHT11;24546;52.240;16.826;2022-08-19T04:33:49;24.40;99.10
38798;SHT11;24546;52.240;16.826;2022-08-19T04:38:55;24.30;99.30
38798;SHT11;24546;52.240;16.826;2022-08-19T04:43:56;24.30;99.50
38798;SHT11;24546;52.240;16.826;2022-08-19T04:48:58;24.50;99.30
38798;SHT11;24546;52.240;16.826;2022-08-19T04:54:01;24.70;99.20
38798;SHT11;24546;52.240;16.826;2022-08-19T04:59:02;24.60;99.10
38798;SHT11;24546;52.240;16.826;2022-08-19T05:04:06;24.50;99.40
38798;SHT11;24546;52.240;16.826;2022-08-19T05:09:07;24.50;99.80
38798;SHT11;24546;52.240;16.826;2022-08-19T05:14:09;24.50;99.50
38798;SHT11;24546;52.240;16.826;2022-08-19T05:19:11;24.60;99.40
38798;SHT11;24546;52.240;16.826;2022-08-19T05:24:31;24.80;99.40
38798;SHT11;24546;52.240;16.826;2022-08-19T05:29:34;25.20;99.30
38798;SHT11;24546;52.240;16.826;2022-08-19T05:34:35;25.10;99.00
38798;SHT11;24546;52.240;16.826;2022-08-19T05:39:38;25.30;98.90
38798;SHT11;24546;52.240;16.826;2022-08-19T05:44:42;25.40;98.60
38798;SHT11;24546;52.240;16.826;2022-08-19T05:49:48;25.60;98.70
38798;SHT11;24546;52.240;16.826;2022-08-19T05:54:50;25.70;98.00
38798;SHT11;24546;52.240;16.826;2022-08-19T05:59:51;25.80;98.10
38798;SHT11;24546;52.240;16.826;2022-08-19T06:04:54;26.10;98.00
38798;SHT11;24546;52.240;16.826;2022-08-19T06:09:55;26.30;97.30
38798;SHT11;24546;52.240;16.826;2022-08-19T06:14:57;26.60;97.20
38798;SHT11;24546;52.240;16.826;2022-08-19T06:19:58;26.70;97.20
38798;SHT11;24546;52.240;16.826;2022-08-19T06:24:59;26.50;96.70
38798;SHT11;24546;52.240;16.826;2022-08-19T06:30:01;26.60;97.40
38798;SHT11;24546;52.240;16.826;2022-08-19T06:35:02;26.70;97.00
38798;SHT11;24546;52.240;16.826;2022-08-19T06:40:03;27.20;97.00
38798;SHT11;24546;52.240;16.826;2022-08-19T06:45:05;27.30;96.30
38798;SHT11;24546;52.240;16.826;2022-08-19T06:50:06;27.80;95.80
38798;SHT11;24546;52.240;16.826;2022-08-19T06:55:08;28.20;96.50
38798;SHT11;24546;52.240;16.826;2022-08-19T07:00:09;28.50;95.90
38798;SHT11;24546;52.240;16.826;2022-08-19T07:05:14;29.10;95.50
38798;SHT11;24546;52.240;16.826;2022-08-19T07:10:14;29.50;94.30
38798;SHT11;24546;52.240;16.826;2022-08-19T07:15:15;29.60;94.30
38798;SHT11;24546;52.240;16.826;2022-08-19T07:20:16;29.70;92.80
38798;SHT11;24546;52.240;16.826;2022-08-19T07:25:17;30.00;93.70
38798;SHT11;24546;52.240;16.826;2022-08-19T07:30:19;30.10;93.50
38798;SHT11;24546;52.240;16.826;2022-08-19T07:35:20;30.20;93.00
38798;SHT11;24546;52.240;16.826;2022-08-19T07:40:21;30.20;93.30
38798;SHT11;24546;52.240;16.826;2022-08-19T07:45:22;30.40;93.40
38798;SHT11;24546;52.240;16.826;2022-08-19T07:50:23;30.50;92.30
38798;SHT11;24546;52.240;16.826;2022-08-19T07:55:25;30.60;91.80
38798;SHT11;24546;52.240;16.826;2022-08-19T08:00:26;30.80;92.50
38798;SHT11;24546;52.240;16.826;2022-08-19T08:05:27;31.10;92.40
38798;SHT11;24546;52.240;16.826;2022-08-19T08:10:46;31.40;91.60
38798;SHT11;24546;52.240;16.826;2022-08-19T08:15:47;31.80;91.40
38798;SHT11;24546;52.240;16.826;2022-08-19T08:20:48;32.10;91.50
38798;SHT11;24546;52.240;16.826;2022-08-19T08:25:49;32.20;90.30
38798;SHT11;24546;52.240;16.826;2022-08-19T08:30:50;32.30;90.70
38798;SHT11;24546;52.240;16.826;2022-08-19T08:35:51;32.40;90.80
38798;SHT11;24546;52.240;16.826;2022-08-19T08:40:57;32.60;90.30
38798;SHT11;24546;52.240;16.826;2022-08-19T08:51:47;32.80;90.60
38798;SHT11;24546;52.240;16.826;2022-08-19T08:56:49;32.70;89.30
38798;SHT11;24546;52.240;16.826;2022-08-19T09:01:52;32.60;91.00
38798;SHT11;24546;52.240;16.826;2022-08-19T09:17:31;33.60;86.10
38798;SHT11;24546;52.240;16.826;2022-08-19T09:22:35;34.20;88.10
38798;SHT11;24546;52.240;16.826;2022-08-19T09:27:37;34.50;84.60
38798;SHT11;24546;52.240;16.826;2022-08-19T09:32:39;34.70;85.10
38798;SHT11;24546;52.240;16.826;2022-08-19T09:37:42;34.90;85.40
38798;SHT11;24546;52.240;16.826;2022-08-19T09:42:44;34.60;82.50
38798;SHT11;24546;52.240;16.826;2022-08-19T09:47:49;34.80;85.90
38798;SHT11;24546;52.240;16.826;2022-08-19T09:52:54;34.90;82.10
38798;SHT11;24546;52.240;16.826;2022-08-19T09:57:55;34.80;81.50
38798;SHT11;24546;52.240;16.826;2022-08-19T10:02:56;35.40;82.80
38798;SHT11;24546;52.240;16.826;2022-08-19T10:07:57;35.60;81.00
38798;SHT11;24546;52.240;16.826;2022-08-19T10:13:01;35.80;82.10
38798;SHT11;24546;52.240;16.826;2022-08-19T10:18:02;35.70;79.40
38798;SHT11;24546;52.240;16.826;2022-08-19T10:23:03;35.90;81.50
38798;SHT11;24546;52.240;16.826;2022-08-19T10:28:04;36.00;81.60
38798;SHT11;24546;52.240;16.826;2022-08-19T10:33:08;36.30;80.70
38798;SHT11;24546;52.240;16.826;2022-08-19T10:38:17;36.80;78.60
38798;SHT11;24546;52.240;16.826;2022-08-19T10:43:20;36.40;78.00
38798;SHT11;24546;52.240;16.826;2022-08-19T10:48:21;36.50;77.60
38798;SHT11;24546;52.240;16.826;2022-08-19T10:53:22;36.70;75.80
38798;SHT11;24546;52.240;16.826;2022-08-19T10:58:25;36.80;75.90
38798;SHT11;24546;52.240;16.826;2022-08-19T11:03:27;36.70;76.00
38798;SHT11;24546;52.240;16.826;2022-08-19T11:08:32;36.80;72.70
38798;SHT11;24546;52.240;16.826;2022-08-19T11:13:36;36.90;76.40
38798;SHT11;24546;52.240;16.826;2022-08-19T11:18:40;36.60;76.20
38798;SHT11;24546;52.240;16.826;2022-08-19T11:23:41;36.90;74.20
38798;SHT11;24546;52.240;16.826;2022-08-19T11:28:42;36.60;73.80
38798;SHT11;24546;52.240;16.826;2022-08-19T11:33:44;36.50;76.50
38798;SHT11;24546;52.240;16.826;2022-08-19T11:38:45;36.70;75.30
38798;SHT11;24546;52.240;16.826;2022-08-19T11:43:49;36.70;75.70
38798;SHT11;24546;52.240;16.826;2022-08-19T11:48:50;36.90;76.10
38798;SHT11;24546;52.240;16.826;2022-08-19T11:53:53;36.30;73.80
38798;SHT11;24546;52.240;16.826;2022-08-19T11:58:55;36.30;76.90
38798;SHT11;24546;52.240;16.826;2022-08-19T12:03:57;36.40;73.80
38798;SHT11;24546;52.240;16.826;2022-08-19T12:09:05;36.60;76.00
38798;SHT11;24546;52.240;16.826;2022-08-19T12:14:09;36.50;77.70
38798;SHT11;24546;52.240;16.826;2022-08-19T12:19:10;36.50;75.80
38798;SHT11;24546;52.240;16.826;2022-08-19T12:24:11;36.40;78.10
38798;SHT11;24546;52.240;16.826;2022-08-19T12:29:12;36.50;77.80
38798;SHT11;24546;52.240;16.826;2022-08-19T12:34:13;36.70;76.60
38798;SHT11;24546;52.240;16.826;2022-08-19T12:39:14;36.70;76.00
38798;SHT11;24546;52.240;16.826;2022-08-19T12:44:15;36.20;76.90
38798;SHT11;24546;52.240;16.826;2022-08-19T12:49:17;36.30;76.30
38798;SHT11;24546;52.240;16.826;2022-08-19T12:54:18;36.20;78.30
38798;SHT11;24546;52.240;16.826;2022-08-19T12:59:19;36.20;77.80
38798;SHT11;24546;52.240;16.826;2022-08-19T13:04:20;36.20;77.70
38798;SHT11;24546;52.240;16.826;2022-08-19T13:09:21;36.20;77.80
38798;SHT11;24546;52.240;16.826;2022-08-19T13:14:22;35.80;76.20
38798;SHT11;24546;52.240;16.826;2022-08-19T13:19:23;35.40;78.00
38798;SHT11;24546;52.240;16.826;2022-08-19T13:24:25;35.40;77.80
38798;SHT11;24546;52.240;16.826;2022-08-19T13:29:26;35.50;79.00
38798;SHT11;24546;52.240;16.826;2022-08-19T13:34:45;35.60;76.90
38798;SHT11;24546;52.240;16.826;2022-08-19T13:39:47;35.60;77.60
38798;SHT11;24546;52.240;16.826;2022-08-19T13:44:48;35.70;77.60
38798;SHT11;24546;52.240;16.826;2022-08-19T13:49:50;35.70;77.40
38798;SHT11;24546;52.240;16.826;2022-08-19T13:54:50;35.90;77.20
38798;SHT11;24546;52.240;16.826;2022-08-19T13:59:51;35.90;78.30
38798;SHT11;24546;52.240;16.826;2022-08-19T14:04:52;35.90;77.20
38798;SHT11;24546;52.240;16.826;2022-08-19T14:09:53;35.60;77.60
38798;SHT11;24546;52.240;16.826;2022-08-19T14:14:54;35.30;75.30
38798;SHT11;24546;52.240;16.826;2022-08-19T14:20:04;35.60;79.60
38798;SHT11;24546;52.240;16.826;2022-08-19T14:25:11;35.30;76.70
38798;SHT11;24546;52.240;16.826;2022-08-19T14:30:16;35.10;76.20
38798;SHT11;24546;52.240;16.826;2022-08-19T14:35:18;34.90;79.00
38798;SHT11;24546;52.240;16.826;2022-08-19T14:40:19;35.00;78.20
38798;SHT11;24546;52.240;16.826;2022-08-19T14:45:28;35.30;79.40
38798;SHT11;24546;52.240;16.826;2022-08-19T14:50:29;35.30;80.30
38798;SHT11;24546;52.240;16.826;2022-08-19T14:55:30;35.10;77.20
38798;SHT11;24546;52.240;16.826;2022-08-19T15:00:32;35.10;78.60
38798;SHT11;24546;52.240;16.826;2022-08-19T15:05:32;34.90;80.20
38798;SHT11;24546;52.240;16.826;2022-08-19T15:10:34;34.40;80.10
38798;SHT11;24546;52.240;16.826;2022-08-19T15:15:35;34.30;80.90
38798;SHT11;24546;52.240;16.826;2022-08-19T15:20:36;33.70;77.80
38798;SHT11;24546;52.240;16.826;2022-08-19T15:25:37;33.40;81.00
38798;SHT11;24546;52.240;16.826;2022-08-19T15:30:39;33.20;80.70
38798;SHT11;24546;52.240;16.826;2022-08-19T15:35:41;33.20;81.70
38798;SHT11;24546;52.240;16.826;2022-08-19T15:40:42;32.80;80.60
38798;SHT11;24546;52.240;16.826;2022-08-19T15:45:48;32.90;82.20
38798;SHT11;24546;52.240;16.826;2022-08-19T15:50:49;32.90;81.40
38798;SHT11;24546;52.240;16.826;2022-08-19T15:55:50;32.70;81.90
38798;SHT11;24546;52.240;16.826;2022-08-19T16:00:51;32.60;84.60
38798;SHT11;24546;52.240;16.826;2022-08-19T16:06:11;32.50;82.30
38798;SHT11;24546;52.240;16.826;2022-08-19T16:11:29;32.10;82.40
38798;SHT11;24546;52.240;16.826;2022-08-19T16:16:32;32.20;83.50
38798;SHT11;24546;52.240;16.826;2022-08-19T16:21:34;32.20;83.90
38798;SHT11;24546;52.240;16.826;2022-08-19T16:26:36;31.80;84.30
38798;SHT11;24546;52.240;16.826;2022-08-19T16:31:38;31.70;82.30
38798;SHT11;24546;52.240;16.826;2022-08-19T16:36:40;31.60;84.40
38798;SHT11;24546;52.240;16.826;2022-08-19T16:41:43;31.30;84.90
38798;SHT11;24546;52.240;16.826;2022-08-19T16:46:44;31.00;83.80
38798;SHT11;24546;52.240;16.826;2022-08-19T16:51:46;31.00;85.10
38798;SHT11;24546;52.240;16.826;2022-08-19T16:56:47;30.90;85.00
38798;SHT11;24546;52.240;16.826;2022-08-19T17:01:49;30.90;84.30
38798;SHT11;24546;52.240;16.826;2022-08-19T17:06:51;30.60;85.10
38798;SHT11;24546;52.240;16.826;2022-08-19T17:11:52;30.40;85.10
38798;SHT11;24546;52.240;16.826;2022-08-19T17:16:53;30.50;85.70
38798;SHT11;24546;52.240;16.826;2022-08-19T17:21:55;30.50;85.90
38798;SHT11;24546;52.240;16.826;2022-08-19T17:26:57;30.30;86.40
38798;SHT11;24546;52.240;16.826;2022-08-19T17:31:58;30.20;86.30
38798;SHT11;24546;52.240;16.826;2022-08-19T17:37:00;29.90;86.70
38798;SHT11;24546;52.240;16.826;2022-08-19T17:42:01;30.00;86.90
38798;SHT11;24546;52.240;16.826;2022-08-19T17:47:05;29.90;86.90
38798;SHT11;24546;52.240;16.826;2022-08-19T17:52:06;29.90;86.60
38798;SHT11;24546;52.240;16.826;2022-08-19T17:57:07;29.80;86.20
38798;SHT11;24546;52.240;16.826;2022-08-19T18:02:10;29.70;87.80
38798;SHT11;24546;52.240;16.826;2022-08-19T18:07:11;29.60;87.90
38798;SHT11;24546;52.240;16.826;2022-08-19T18:12:13;29.40;88.70
38798;SHT11;24546;52.240;16.826;2022-08-19T18:17:16;29.10;89.20
38798;SHT11;24546;52.240;16.826;2022-08-19T18:27:27;28.90;89.30
38798;SHT11;24546;52.240;16.826;2022-08-19T18:32:30;28.90;90.10
38798;SHT11;24546;52.240;16.826;2022-08-19T18:37:35;28.90;90.10
38798;SHT11;24546;52.240;16.826;2022-08-19T18:42:41;28.90;90.00
38798;SHT11;24546;52.240;16.826;2022-08-19T18:48:02;28.80;90.40
38798;SHT11;24546;52.240;16.826;2022-08-19T18:53:22;28.80;90.60
38798;SHT11;24546;52.240;16.826;2022-08-19T18:58:25;28.70;91.10
38798;SHT11;24546;52.240;16.826;2022-08-19T19:03:31;28.60;91.20
38798;SHT11;24546;52.240;16.826;2022-08-19T19:08:33;28.50;91.10
38798;SHT11;24546;52.240;16.826;2022-08-19T19:13:38;28.40;91.80
38798;SHT11;24546;52.240;16.826;2022-08-19T19:18:40;28.30;92.00
38798;SHT11;24546;52.240;16.826;2022-08-19T19:23:43;28.20;92.30
38798;SHT11;24546;52.240;16.826;2022-08-19T19:28:45;28.10;92.40
38798;SHT11;24546;52.240;16.826;2022-08-19T19:33:48;28.00;92.40
38798;SHT11;24546;52.240;16.826;2022-08-19T19:38:50;27.90;92.60
38798;SHT11;24546;52.240;16.826;2022-08-19T19:43:52;27.80;93.10
38798;SHT11;24546;52.240;16.826;2022-08-19T19:48:57;27.80;93.10
38798;SHT11;24546;52.240;16.826;2022-08-19T19:53:58;27.80;93.30
38798;SHT11;24546;52.240;16.826;2022-08-19T19:59:01;27.70;93.40
38798;SHT11;24546;52.240;16.826;2022-08-19T20:04:03;27.60;93.20
38798;SHT11;24546;52.240;16.826;2022-08-19T20:09:04;27.60;93.60
38798;SHT11;24546;52.240;16.826;2022-08-19T20:14:18;27.50;93.80
38798;SHT11;24546;52.240;16.826;2022-08-19T20:19:23;27.50;94.00
38798;SHT11;24546;52.240;16.826;2022-08-19T20:24:28;27.40;94.40
38798;SHT11;24546;52.240;16.826;2022-08-19T20:29:32;27.40;94.40
38798;SHT11;24546;52.240;16.826;2022-08-19T20:34:33;27.30;93.90
38798;SHT11;24546;52.240;16.826;2022-08-19T20:39:34;27.40;94.40
38798;SHT11;24546;52.240;16.826;2022-08-19T20:44:35;27.30;94.90
38798;SHT11;24546;52.240;16.826;2022-08-19T20:49:36;27.30;95.10
38798;SHT11;24546;52.240;16.826;2022-08-19T20:54:37;27.20;95.70
38798;SHT11;24546;52.240;16.826;2022-08-19T20:59:38;27.10;96.00
38798;SHT11;24546;52.240;16.826;2022-08-19T21:04:39;27.00;96.50
38798;SHT11;24546;52.240;16.826;2022-08-19T21:09:40;27.10;96.90
38798;SHT11;24546;52.240;16.826;2022-08-19T21:14:42;26.80;97.20
38798;SHT11;24546;52.240;16.826;2022-08-19T21:19:43;26.70;97.70
38798;SHT11;24546;52.240;16.826;2022-08-19T21:24:44;26.70;97.70
38798;SHT11;24546;52.240;16.826;2022-08-19T21:29:45;26.60;98.00
38798;SHT11;24546;52.240;16.826;2022-08-19T21:34:46;26.50;98.70
38798;SHT11;24546;52.240;16.826;2022-08-19T21:39:47;26.50;99.00
38798;SHT11;24546;52.240;16.826;2022-08-19T21:44:49;26.30;99.50
38798;SHT11;24546;52.240;16.826;2022-08-19T21:49:50;26.20;99.90
38798;SHT11;24546;52.240;16.826;2022-08-19T21:54:53;26.10;99.90
38798;SHT11;24546;52.240;16.826;2022-08-19T21:59:54;26.00;99.90
38798;SHT11;24546;52.240;16.826;2022-08-19T22:04:55;26.00;99.90
38798;SHT11;24546;52.240;16.826;2022-08-19T22:09:56;25.80;99.90
38798;SHT11;24546;52.240;16.826;2022-08-19T22:14:58;25.60;99.90
38798;SHT11;24546;52.240;16.826;2022-08-19T22:19:59;25.70;99.90
38798;SHT11;24546;52.240;16.826;2022-08-19T22:25:13;25.70;99.90
38798;SHT11;24546;52.240;16.826;2022-08-19T22:30:16;25.70;99.90
38798;SHT11;24546;52.240;16.826;2022-08-19T22:35:20;25.70;99.90
38798;SHT11;24546;52.240;16.826;2022-08-19T22:40:22;25.70;99.90
38798;SHT11;24546;52.240;16.826;2022-08-19T22:45:23;25.70;99.90
38798;SHT11;24546;52.240;16.826;2022-08-19T22:50:24;25.60;99.90
38798;SHT11;24546;52.240;16.826;2022-08-19T22:55:27;25.50;99.90
38798;SHT11;24546;52.240;16.826;2022-08-19T23:00:29;25.50;99.90
38798;SHT11;24546;52.240;16.826;2022-08-19T23:05:32;25.40;99.90
38798;SHT11;24546;52.240;16.826;2022-08-19T23:10:33;25.40;99.90
38798;SHT11;24546;52.240;16.826;2022-08-19T23:15:35;25.30;99.90
38798;SHT11;24546;52.240;16.826;2022-08-19T23:20:38;25.30;99.90
38798;SHT11;24546;52.240;16.826;2022-08-19T23:25:41;25.20;99.90
38798;SHT11;24546;52.240;16.826;2022-08-19T23:30:46;25.10;99.90
38798;SHT11;24546;52.240;16.826;2022-08-19T23:35:47;25.10;99.90
38798;SHT11;24546;52.240;16.826;2022-08-19T23:40:50;25.00;99.90
38798;SHT11;24546;52.240;16.826;2022-08-19T23:45:51;25.00;99.90
38798;SHT11;24546;52.240;16.826;2022-08-19T23:50:54;25.00;99.90
38798;SHT11;24546;52.240;16.826;2022-08-19T23:55:56;24.90;99.90
